createdAt,value
2022-11-15T00:00:40.323Z,11.22
2022-11-15T00:02:01.777Z,10.73
2022-11-15T00:03:24.961Z,11.19
2022-11-15T00:06:08.726Z,11.54
2022-11-15T00:07:54.141Z,12.53
2022-11-15T00:08:53.374Z,11.21
2022-11-15T00:10:15.912Z,11.82
2022-11-15T00:11:37.254Z,8.85
2022-11-15T00:12:59.112Z,11.26
2022-11-15T00:14:20.283Z,12.07
2022-11-15T00:15:41.431Z,12.34
2022-11-15T00:17:02.856Z,12.39
2022-11-15T00:18:24.717Z,11.19
2022-11-15T00:19:46.190Z,14.21
2022-11-15T00:21:10.221Z,11.68
2022-11-15T00:23:43.646Z,12.67
2022-11-15T00:25:06.024Z,15.31
2022-11-15T00:26:27.594Z,14.31
2022-11-15T00:27:48.926Z,41.83
2022-11-15T00:29:10.008Z,14.44
2022-11-15T00:30:32.504Z,15.80
2022-11-15T00:31:53.521Z,8.31
2022-11-15T00:33:14.448Z,10.17
2022-11-15T00:34:35.465Z,12.57
2022-11-15T00:36:03.949Z,9.41
2022-11-15T00:37:25.386Z,11.47
2022-11-15T00:38:47.003Z,13.19
2022-11-15T00:40:09.450Z,9.47
2022-11-15T00:41:30.798Z,9.57
2022-11-15T00:42:52.056Z,12.13
2022-11-15T00:44:13.611Z,9.82
2022-11-15T00:45:35.134Z,11.00
2022-11-15T00:46:56.597Z,10.50
2022-11-15T00:48:17.649Z,10.98
2022-11-15T00:49:38.620Z,11.57
2022-11-15T00:50:59.969Z,10.64
2022-11-15T00:52:21.218Z,11.54
2022-11-15T00:53:42.439Z,10.61
2022-11-15T00:55:04.605Z,11.63
2022-11-15T00:56:26.036Z,12.54
2022-11-15T00:57:47.088Z,12.98
2022-11-15T00:59:08.422Z,13.58
2022-11-15T01:00:29.690Z,14.68
2022-11-15T01:01:50.969Z,12.43
2022-11-15T01:03:12.340Z,14.89
2022-11-15T01:04:33.709Z,12.17
2022-11-15T01:05:58.973Z,13.92
2022-11-15T01:07:20.069Z,11.18
2022-11-15T01:08:41.504Z,12.33
2022-11-15T01:10:03.672Z,13.03
2022-11-15T01:11:24.873Z,14.55
2022-11-15T01:12:45.807Z,13.82
2022-11-15T01:14:07.325Z,14.11
2022-11-15T01:15:29.047Z,14.03
2022-11-15T01:16:50.620Z,11.56
2022-11-15T01:18:12.133Z,12.60
2022-11-15T01:19:33.428Z,14.28
2022-11-15T01:20:54.981Z,11.97
2022-11-15T01:22:16.260Z,14.27
2022-11-15T01:23:37.957Z,12.29
2022-11-15T01:24:59.451Z,13.23
2022-11-15T01:26:21.241Z,11.24
2022-11-15T01:27:42.766Z,13.42
2022-11-15T01:29:04.412Z,12.66
2022-11-15T01:30:25.881Z,12.69
2022-11-15T01:31:47.352Z,13.21
2022-11-15T01:33:08.769Z,12.41
2022-11-15T01:34:30.507Z,13.36
2022-11-15T01:35:51.914Z,13.51
2022-11-15T01:37:13.401Z,11.65
2022-11-15T01:38:34.926Z,12.67
2022-11-15T01:39:56.397Z,12.89
2022-11-15T01:41:20.238Z,17.17
2022-11-15T01:42:41.843Z,18.84
2022-11-15T01:44:35.763Z,22.98
2022-11-15T01:46:25.431Z,19.53
2022-11-15T01:47:51.959Z,17.16
2022-11-15T01:50:29.293Z,17.63
2022-11-15T01:51:50.488Z,14.45
2022-11-15T01:53:12.489Z,29.60
2022-11-15T01:54:33.739Z,17.38
2022-11-15T01:55:55.233Z,25.89
2022-11-15T01:57:16.848Z,18.49
2022-11-15T01:58:38.055Z,12.67
2022-11-15T01:59:59.556Z,14.76
2022-11-15T02:01:21.103Z,14.07
2022-11-15T02:02:42.161Z,15.78
2022-11-15T02:04:10.260Z,14.59
2022-11-15T02:05:31.521Z,15.52
2022-11-15T02:06:53.191Z,14.35
2022-11-15T02:08:14.937Z,13.99
2022-11-15T02:09:37.145Z,13.39
2022-11-15T02:10:58.587Z,9.33
2022-11-15T02:12:20.803Z,14.61
2022-11-15T02:13:42.581Z,13.27
2022-11-15T02:15:04.933Z,16.54
2022-11-15T02:16:36.156Z,13.38
2022-11-15T02:18:06.873Z,15.14
2022-11-15T02:21:08.497Z,12.51
2022-11-15T02:22:48.356Z,14.66
2022-11-15T02:24:31.704Z,14.16
2022-11-15T02:25:59.444Z,14.92
2022-11-15T02:27:33.756Z,12.32
2022-11-15T02:29:06.168Z,12.62
2022-11-15T02:30:39.171Z,12.41
2022-11-15T02:32:04.175Z,15.15
2022-11-15T02:33:52.438Z,12.96
2022-11-15T02:36:44.487Z,10.65
2022-11-15T02:38:21.877Z,14.52
2022-11-15T02:39:59.054Z,13.69
2022-11-15T02:42:42.226Z,12.87
2022-11-15T02:44:07.285Z,12.55
2022-11-15T02:45:33.466Z,14.51
2022-11-15T02:47:02.156Z,13.54
2022-11-15T02:48:23.452Z,13.06
2022-11-15T02:49:47.565Z,12.72
2022-11-15T02:51:08.887Z,13.43
2022-11-15T02:52:30.406Z,12.13
2022-11-15T02:53:52.405Z,13.49
2022-11-15T02:55:33.188Z,13.24
2022-11-15T02:56:56.493Z,14.16
2022-11-15T02:58:39.711Z,12.24
2022-11-15T03:01:43.802Z,13.93
2022-11-15T03:03:14.785Z,13.69
2022-11-15T03:04:49.753Z,14.04
2022-11-15T03:06:30.259Z,13.54
2022-11-15T03:09:32.132Z,13.82
2022-11-15T03:11:16.159Z,14.87
2022-11-15T03:14:12.313Z,15.16
2022-11-15T03:27:16.395Z,13.06
2022-11-15T03:29:58.457Z,13.63
2022-11-15T03:31:19.940Z,13.02
2022-11-15T03:32:45.135Z,12.98
2022-11-15T03:34:07.545Z,13.81
2022-11-15T03:36:41.183Z,16.12
2022-11-15T03:39:28.098Z,12.12
2022-11-15T03:42:24.918Z,13.39
2022-11-15T03:43:57.919Z,13.10
2022-11-15T03:45:34.543Z,11.46
2022-11-15T03:47:04.972Z,13.60
2022-11-15T03:48:27.860Z,13.98
2022-11-15T03:49:53.752Z,13.33
2022-11-15T03:51:15.178Z,13.21
2022-11-15T03:52:36.214Z,13.75
2022-11-15T03:53:57.631Z,12.17
2022-11-15T03:55:20.141Z,14.39
2022-11-15T03:56:41.429Z,9.95
2022-11-15T03:58:02.753Z,13.41
2022-11-15T03:59:24.152Z,14.46
2022-11-15T04:00:45.860Z,17.95
2022-11-15T04:02:06.898Z,18.48
2022-11-15T04:03:28.258Z,26.63
2022-11-15T04:04:49.527Z,28.33
2022-11-15T04:06:12.249Z,21.24
2022-11-15T04:07:33.502Z,14.83
2022-11-15T04:08:54.825Z,11.97
2022-11-15T04:10:16.511Z,16.71
2022-11-15T04:11:37.628Z,14.61
2022-11-15T04:12:59.002Z,13.69
2022-11-15T04:14:20.040Z,13.64
2022-11-15T04:15:41.066Z,12.54
2022-11-15T04:17:02.516Z,11.82
2022-11-15T04:18:24.062Z,12.66
2022-11-15T04:19:45.637Z,12.42
2022-11-15T04:21:08.476Z,12.79
2022-11-15T04:23:50.770Z,13.42
2022-11-15T04:25:12.260Z,12.59
2022-11-15T04:26:33.626Z,11.83
2022-11-15T04:27:54.923Z,12.09
2022-11-15T04:29:16.185Z,14.84
2022-11-15T04:30:37.832Z,12.23
2022-11-15T04:31:59.131Z,11.72
2022-11-15T04:33:20.487Z,11.68
2022-11-15T04:34:41.862Z,14.26
2022-11-15T04:36:03.382Z,13.92
2022-11-15T04:37:24.680Z,11.91
2022-11-15T04:38:47.887Z,15.66
2022-11-15T04:40:09.614Z,14.20
2022-11-15T04:41:30.629Z,12.18
2022-11-15T04:42:52.066Z,12.70
2022-11-15T04:44:13.567Z,14.93
2022-11-15T04:45:35.131Z,12.70
2022-11-15T04:46:56.664Z,18.40
2022-11-15T04:48:17.854Z,13.76
2022-11-15T04:49:39.347Z,16.76
2022-11-15T04:51:00.455Z,12.39
2022-11-15T04:52:21.954Z,14.46
2022-11-15T04:53:43.250Z,13.28
2022-11-15T04:55:08.113Z,12.72
2022-11-15T04:56:28.644Z,13.51
2022-11-15T04:57:58.625Z,14.93
2022-11-15T04:59:19.729Z,15.66
2022-11-15T05:00:41.619Z,14.02
2022-11-15T05:02:02.809Z,14.39
2022-11-15T05:03:24.097Z,13.36
2022-11-15T05:04:45.625Z,15.53
2022-11-15T05:06:06.783Z,12.42
2022-11-15T05:07:28.020Z,14.91
2022-11-15T05:08:49.432Z,14.63
2022-11-15T05:10:11.631Z,12.29
2022-11-15T05:11:32.987Z,16.28
2022-11-15T05:12:54.462Z,14.74
2022-11-15T05:14:15.659Z,12.88
2022-11-15T05:15:37.088Z,38.95
2022-11-15T05:16:58.423Z,20.17
2022-11-15T05:18:23.601Z,21.32
2022-11-15T05:19:42.718Z,15.65
2022-11-15T05:21:09.773Z,14.69
2022-11-15T05:22:31.167Z,23.81
2022-11-15T05:23:52.207Z,16.39
2022-11-15T05:25:13.632Z,17.80
2022-11-15T05:26:35.212Z,17.48
2022-11-15T05:27:57.508Z,13.97
2022-11-15T05:29:18.838Z,19.26
2022-11-15T05:30:39.971Z,17.28
2022-11-15T05:32:01.367Z,16.09
2022-11-15T05:33:23.448Z,15.94
2022-11-15T05:34:44.908Z,18.37
2022-11-15T05:36:24.590Z,20.02
2022-11-15T05:37:46.213Z,18.96
2022-11-15T05:39:09.225Z,16.08
2022-11-15T05:40:31.846Z,17.12
2022-11-15T05:41:55.119Z,19.27
2022-11-15T05:43:16.573Z,17.04
2022-11-15T05:44:38.583Z,17.63
2022-11-15T05:45:59.691Z,17.87
2022-11-15T05:47:24.600Z,15.83
2022-11-15T05:48:48.468Z,19.44
2022-11-15T05:50:12.987Z,18.54
2022-11-15T05:51:34.184Z,17.52
2022-11-15T05:52:58.557Z,17.89
2022-11-15T05:55:42.699Z,15.86
2022-11-15T05:57:05.550Z,14.52
2022-11-15T05:59:47.877Z,14.50
2022-11-15T06:02:20.427Z,14.93
2022-11-15T06:03:42.616Z,12.31
2022-11-15T06:05:04.582Z,13.88
2022-11-15T06:06:28.247Z,17.77
2022-11-15T06:07:49.392Z,15.11
2022-11-15T06:09:11.984Z,21.86
2022-11-15T06:10:33.549Z,19.79
2022-11-15T06:11:55.110Z,19.73
2022-11-15T06:13:16.556Z,15.51
2022-11-15T06:14:37.619Z,15.21
2022-11-15T06:15:59.312Z,20.37
2022-11-15T06:17:20.875Z,18.79
2022-11-15T06:18:43.997Z,16.44
2022-11-15T06:20:05.914Z,17.86
2022-11-15T06:21:27.051Z,17.06
2022-11-15T06:22:49.582Z,21.61
2022-11-15T06:24:10.834Z,18.21
2022-11-15T06:25:32.751Z,20.56
2022-11-15T06:26:54.356Z,19.56
2022-11-15T06:28:15.600Z,16.68
2022-11-15T06:29:36.715Z,19.80
2022-11-15T06:31:05.527Z,21.01
2022-11-15T06:32:27.014Z,17.63
2022-11-15T06:33:48.426Z,18.90
2022-11-15T06:35:12.614Z,18.16
2022-11-15T06:36:35.901Z,15.40
2022-11-15T06:38:02.958Z,23.67
2022-11-15T06:39:26.360Z,22.76
2022-11-15T06:40:47.707Z,17.86
2022-11-15T06:42:09.106Z,18.92
2022-11-15T06:43:30.530Z,18.74
2022-11-15T06:44:52.182Z,16.57
2022-11-15T06:46:14.037Z,17.44
2022-11-15T06:47:35.727Z,15.72
2022-11-15T06:48:57.136Z,16.59
2022-11-15T06:50:19.912Z,17.36
2022-11-15T06:51:41.614Z,16.24
2022-11-15T06:53:03.995Z,20.91
2022-11-15T06:54:25.441Z,18.99
2022-11-15T06:55:50.827Z,15.26
2022-11-15T06:57:11.638Z,19.85
2022-11-15T06:58:33.968Z,22.75
2022-11-15T06:59:55.127Z,18.68
2022-11-15T07:01:16.701Z,18.05
2022-11-15T07:02:38.257Z,16.28
2022-11-15T07:03:59.729Z,17.72
2022-11-15T07:05:22.267Z,16.98
2022-11-15T07:06:46.913Z,24.52
2022-11-15T07:08:08.577Z,33.17
2022-11-15T07:09:29.923Z,22.07
2022-11-15T07:10:52.162Z,17.03
2022-11-15T07:12:13.282Z,16.66
2022-11-15T07:13:36.805Z,22.32
2022-11-15T07:14:58.259Z,21.16
2022-11-15T07:16:21.854Z,15.64
2022-11-15T07:17:43.267Z,16.53
2022-11-15T07:19:04.561Z,18.33
2022-11-15T07:20:26.143Z,22.57
2022-11-15T07:21:47.569Z,46.89
2022-11-15T07:23:08.966Z,21.83
2022-11-15T07:24:32.424Z,25.97
2022-11-15T07:25:53.804Z,16.85
2022-11-15T07:27:16.666Z,17.69
2022-11-15T07:28:40.395Z,64.32
2022-11-15T07:30:02.710Z,18.61
2022-11-15T07:31:23.737Z,21.44
2022-11-15T07:32:45.039Z,17.79
2022-11-15T07:34:08.065Z,26.81
2022-11-15T07:36:53.155Z,18.82
2022-11-15T07:38:14.152Z,47.97
2022-11-15T07:39:35.837Z,15.67
2022-11-15T07:40:58.026Z,17.92
2022-11-15T07:42:19.624Z,19.10
2022-11-15T07:43:40.824Z,17.79
2022-11-15T07:45:02.590Z,17.02
2022-11-15T07:46:24.015Z,24.19
2022-11-15T07:48:59.312Z,25.21
2022-11-15T07:50:21.034Z,18.31
2022-11-15T07:51:42.518Z,19.83
2022-11-15T07:53:07.948Z,22.24
2022-11-15T07:54:29.561Z,17.67
2022-11-15T07:55:50.911Z,16.94
2022-11-15T07:57:13.639Z,22.02
2022-11-15T07:58:34.732Z,22.59
2022-11-15T07:59:56.498Z,29.26
2022-11-15T08:01:19.022Z,23.15
2022-11-15T08:02:41.965Z,16.85
2022-11-15T08:04:04.606Z,17.99
2022-11-15T08:05:26.147Z,19.83
2022-11-15T08:06:48.000Z,17.13
2022-11-15T08:08:10.372Z,18.97
2022-11-15T08:09:33.043Z,19.00
2022-11-15T08:12:05.392Z,17.96
2022-11-15T08:13:27.280Z,15.81
2022-11-15T08:14:48.652Z,19.27
2022-11-15T08:16:11.019Z,18.28
2022-11-15T08:17:32.497Z,17.81
2022-11-15T08:18:55.604Z,16.49
2022-11-15T08:20:17.214Z,15.52
2022-11-15T08:22:51.643Z,16.76
2022-11-15T08:24:14.314Z,17.22
2022-11-15T08:25:35.701Z,21.31
2022-11-15T08:26:59.861Z,15.25
2022-11-15T08:28:21.795Z,14.24
2022-11-15T08:29:49.084Z,15.88
2022-11-15T08:31:15.670Z,15.91
2022-11-15T08:32:38.582Z,16.36
2022-11-15T08:34:00.901Z,22.19
2022-11-15T08:35:26.284Z,19.39
2022-11-15T08:38:07.615Z,17.95
2022-11-15T08:39:29.143Z,18.03
2022-11-15T08:40:54.217Z,15.37
2022-11-15T08:42:19.577Z,14.61
2022-11-15T08:43:38.865Z,14.88
2022-11-15T08:45:01.637Z,15.47
2022-11-15T08:46:23.018Z,18.11
2022-11-15T08:47:44.089Z,13.69
2022-11-15T08:49:07.789Z,12.10
2022-11-15T08:50:29.232Z,16.42
2022-11-15T08:51:50.641Z,13.43
2022-11-15T08:53:11.687Z,14.53
2022-11-15T08:54:33.195Z,14.32
2022-11-15T08:55:54.414Z,15.70
2022-11-15T08:57:15.923Z,19.48
2022-11-15T08:58:37.407Z,17.21
2022-11-15T08:59:58.726Z,19.23
2022-11-15T09:01:20.575Z,17.37
2022-11-15T09:02:41.998Z,16.26
2022-11-15T09:04:03.592Z,16.97
2022-11-15T09:05:25.656Z,16.57
2022-11-15T09:06:47.969Z,16.24
2022-11-15T09:08:32.789Z,19.21
2022-11-15T09:09:33.180Z,17.99
2022-11-15T09:10:54.574Z,17.08
2022-11-15T09:12:15.616Z,19.67
2022-11-15T09:13:37.258Z,19.09
2022-11-15T09:15:00.406Z,14.73
2022-11-15T09:16:21.688Z,16.94
2022-11-15T09:19:00.169Z,20.04
2022-11-15T09:20:21.889Z,15.27
2022-11-15T09:21:43.293Z,17.40
2022-11-15T09:23:04.919Z,17.41
2022-11-15T09:24:27.644Z,19.04
2022-11-15T09:27:10.684Z,20.54
2022-11-15T09:28:33.762Z,19.16
2022-11-15T09:29:56.296Z,16.67
2022-11-15T09:31:21.110Z,17.41
2022-11-15T09:32:41.051Z,16.00
2022-11-15T09:34:02.460Z,16.97
2022-11-15T09:35:23.993Z,18.43
2022-11-15T09:36:45.471Z,19.26
2022-11-15T09:38:10.640Z,17.18
2022-11-15T09:39:33.246Z,19.69
2022-11-15T09:41:15.132Z,15.54
2022-11-15T09:43:01.437Z,15.14
2022-11-15T09:44:47.609Z,16.66
2022-11-15T09:46:12.869Z,18.38
2022-11-15T09:47:46.555Z,16.02
2022-11-15T09:49:08.397Z,22.63
2022-11-15T09:50:36.234Z,17.10
2022-11-15T09:51:57.717Z,16.27
2022-11-15T09:54:55.240Z,18.43
2022-11-15T09:56:21.683Z,19.51
2022-11-15T09:57:58.343Z,22.29
2022-11-15T09:59:41.750Z,19.54
2022-11-15T10:01:10.239Z,22.22
2022-11-15T10:02:35.188Z,20.46
2022-11-15T10:03:56.823Z,18.46
2022-11-15T10:05:20.901Z,13.74
2022-11-15T10:12:22.647Z,14.46
2022-11-15T10:13:45.663Z,15.67
2022-11-15T10:15:11.853Z,19.02
2022-11-15T10:17:09.082Z,20.92
2022-11-15T10:20:21.340Z,17.44
2022-11-15T10:21:49.873Z,23.11
2022-11-15T10:23:12.440Z,22.64
2022-11-15T10:24:42.039Z,25.24
2022-11-15T10:26:06.977Z,27.06
2022-11-15T10:27:28.357Z,26.34
2022-11-15T10:28:50.527Z,27.94
2022-11-15T10:30:16.272Z,26.72
2022-11-15T10:31:38.967Z,25.07
2022-11-15T10:33:03.382Z,21.62
2022-11-15T10:34:24.577Z,20.81
2022-11-15T10:35:45.713Z,25.31
2022-11-15T10:37:07.308Z,20.23
2022-11-15T10:38:31.136Z,18.52
2022-11-15T10:41:30.926Z,16.11
2022-11-15T10:43:07.102Z,19.32
2022-11-15T10:44:31.417Z,19.39
2022-11-15T10:45:52.592Z,23.91
2022-11-15T10:48:43.820Z,22.01
2022-11-15T10:50:09.944Z,21.66
2022-11-15T10:51:34.709Z,20.89
2022-11-15T10:52:56.648Z,23.74
2022-11-15T10:54:27.373Z,21.41
2022-11-15T10:56:12.216Z,21.40
2022-11-15T10:57:40.157Z,21.31
2022-11-15T10:59:01.787Z,24.01
2022-11-15T11:00:27.698Z,25.40
2022-11-15T11:01:49.250Z,22.08
2022-11-15T11:04:51.359Z,22.18
2022-11-15T11:06:15.814Z,22.92
2022-11-15T11:07:37.241Z,22.19
2022-11-15T11:09:01.950Z,27.01
2022-11-15T11:11:51.393Z,23.37
2022-11-15T11:14:31.584Z,28.20
2022-11-15T11:16:16.036Z,25.39
2022-11-15T11:18:00.750Z,28.81
2022-11-15T11:19:47.020Z,26.48
2022-11-15T11:21:15.072Z,28.08
2022-11-15T11:23:02.549Z,33.41
2022-11-15T11:24:31.047Z,25.24
2022-11-15T11:27:49.879Z,27.56
2022-11-15T11:29:23.740Z,24.54
2022-11-15T11:31:07.211Z,25.01
2022-11-15T11:32:53.892Z,25.86
2022-11-15T11:34:30.960Z,24.98
2022-11-15T11:36:08.136Z,25.61
2022-11-15T11:37:50.701Z,25.83
2022-11-15T11:39:44.827Z,24.83
2022-11-15T11:42:38.411Z,22.76
2022-11-15T11:44:30.893Z,22.01
2022-11-15T11:46:11.468Z,26.18
2022-11-15T11:49:18.882Z,22.93
2022-11-15T11:50:40.971Z,23.27
2022-11-15T11:52:12.505Z,24.72
2022-11-15T11:53:40.510Z,21.54
2022-11-15T11:55:29.090Z,22.67
2022-11-15T11:56:50.744Z,21.48
2022-11-15T11:58:39.801Z,23.49
2022-11-15T12:01:23.956Z,25.55
2022-11-15T12:04:30.338Z,16.99
2022-11-15T12:05:54.857Z,21.10
2022-11-15T12:07:19.961Z,32.36
2022-11-15T12:08:56.466Z,26.13
2022-11-15T12:10:28.894Z,21.17
2022-11-15T12:12:15.149Z,23.88
2022-11-15T12:13:36.779Z,22.14
2022-11-15T12:15:05.369Z,18.97
2022-11-15T12:17:51.881Z,15.94
2022-11-15T12:19:13.927Z,30.04
2022-11-15T12:20:38.242Z,18.89
2022-11-15T19:45:27.743Z,53.13
2022-11-15T19:48:25.741Z,34.35
2022-11-15T19:49:55.013Z,33.36
2022-11-15T19:51:27.032Z,22.34
2022-11-15T19:52:48.007Z,20.31
2022-11-15T19:54:17.852Z,22.72
2022-11-15T19:55:41.780Z,21.84
2022-11-15T19:57:11.141Z,23.84
2022-11-15T19:58:34.536Z,21.51
2022-11-15T20:01:48.830Z,21.77
2022-11-15T20:03:15.974Z,19.64
2022-11-15T20:04:37.263Z,23.05
2022-11-15T20:07:38.753Z,19.37
2022-11-15T20:09:12.614Z,19.99
2022-11-15T20:10:34.113Z,17.41
2022-11-15T20:11:56.791Z,19.52
2022-11-15T20:13:18.008Z,19.66
2022-11-15T20:14:45.697Z,22.48
2022-11-15T20:16:07.943Z,21.93
2022-11-15T20:17:35.922Z,27.58
2022-11-15T20:18:58.143Z,28.04
2022-11-15T20:20:26.224Z,25.17
2022-11-15T20:21:48.179Z,22.68
2022-11-15T20:23:09.230Z,21.37
2022-11-15T20:24:30.657Z,22.00
2022-11-15T20:25:52.301Z,26.02
2022-11-15T20:27:15.471Z,22.67
2022-11-15T20:29:58.442Z,21.89
2022-11-15T20:31:20.068Z,20.97
2022-11-15T20:32:41.626Z,20.66
2022-11-15T20:34:03.351Z,24.43
2022-11-15T20:35:25.009Z,22.17
2022-11-15T20:36:46.616Z,24.09
2022-11-15T20:38:10.345Z,20.72
2022-11-15T20:39:31.680Z,22.39
2022-11-15T20:40:58.879Z,23.13
2022-11-15T20:42:18.206Z,25.09
2022-11-15T20:43:39.942Z,36.94
2022-11-15T20:45:01.343Z,38.49
2022-11-15T20:46:23.708Z,33.02
2022-11-15T20:47:44.796Z,23.53
2022-11-15T20:49:06.094Z,22.07
2022-11-15T20:50:42.180Z,23.95
2022-11-15T20:51:50.406Z,25.23
2022-11-15T20:53:13.370Z,21.27
2022-11-15T20:54:34.619Z,19.84
2022-11-15T20:55:55.522Z,24.19
2022-11-15T20:57:17.068Z,22.20
2022-11-15T20:58:38.711Z,22.07
2022-11-15T21:00:05.412Z,22.62
2022-11-15T21:01:26.047Z,19.12
2022-11-15T21:02:47.834Z,19.87
2022-11-15T21:04:09.265Z,26.69
2022-11-15T21:05:30.657Z,20.10
2022-11-15T21:06:52.460Z,19.13
2022-11-15T21:08:14.018Z,22.16
2022-11-15T21:09:36.357Z,22.39
2022-11-15T21:10:57.698Z,20.95
2022-11-15T21:12:19.456Z,18.28
2022-11-15T21:13:40.995Z,19.82
2022-11-15T21:15:02.497Z,21.54
2022-11-15T21:16:23.914Z,20.36
2022-11-15T21:17:45.048Z,17.81
2022-11-15T21:19:07.006Z,19.88
2022-11-15T21:20:28.953Z,18.46
2022-11-15T21:21:50.136Z,22.39
2022-11-15T21:23:11.673Z,22.86
2022-11-15T21:24:33.521Z,19.49
2022-11-15T21:25:54.932Z,20.12
2022-11-15T21:27:16.579Z,22.91
2022-11-15T21:28:38.016Z,21.77
2022-11-15T21:29:59.482Z,22.39
2022-11-15T21:31:20.904Z,24.78
2022-11-15T21:32:44.259Z,25.11
2022-11-15T21:34:05.333Z,24.99
2022-11-15T21:35:26.334Z,26.24
2022-11-15T21:36:47.780Z,25.08
2022-11-15T21:38:08.798Z,34.95
2022-11-15T21:39:29.903Z,23.77
2022-11-15T21:40:51.504Z,32.68
2022-11-15T21:42:12.475Z,27.67
2022-11-15T21:43:33.962Z,40.72
2022-11-15T21:44:54.954Z,57.78
2022-11-15T21:46:15.995Z,47.64
2022-11-15T21:47:37.794Z,43.53
2022-11-15T21:48:59.884Z,44.55
2022-11-15T21:50:21.336Z,48.22
2022-11-15T21:51:42.531Z,29.95
2022-11-15T21:53:03.947Z,62.31
2022-11-15T21:54:25.541Z,39.11
2022-11-15T21:55:46.647Z,28.30
2022-11-15T21:57:08.135Z,19.84
2022-11-15T21:58:30.048Z,23.27
2022-11-15T21:59:51.272Z,22.72
2022-11-15T22:01:12.446Z,23.98
2022-11-15T22:02:33.862Z,31.21
2022-11-15T22:03:55.538Z,29.56
2022-11-15T22:05:16.918Z,33.72
2022-11-15T22:06:38.479Z,27.63
2022-11-15T22:07:59.621Z,26.19
2022-11-15T22:09:21.258Z,18.44
2022-11-15T22:10:48.086Z,29.01
2022-11-15T22:12:09.569Z,20.78
2022-11-15T22:13:30.928Z,22.37
2022-11-15T22:14:52.602Z,20.72
2022-11-15T22:16:14.113Z,22.51
2022-11-15T22:17:35.271Z,23.28
2022-11-15T22:18:57.082Z,26.00
2022-11-15T22:21:41.763Z,25.38
2022-11-15T22:23:03.564Z,23.37
2022-11-15T22:24:24.708Z,18.57
2022-11-15T22:25:46.184Z,16.98
2022-11-15T22:27:07.799Z,18.31
2022-11-15T22:28:29.506Z,16.93
2022-11-15T22:29:50.835Z,18.54
2022-11-15T22:31:12.565Z,20.37
2022-11-15T22:32:34.046Z,21.37
2022-11-15T22:33:55.498Z,16.63
2022-11-15T22:35:16.900Z,18.41
2022-11-15T22:36:58.358Z,15.73
2022-11-15T22:39:22.373Z,20.00
2022-11-15T22:40:43.926Z,15.33
2022-11-15T22:42:05.208Z,17.21
2022-11-15T22:43:26.692Z,17.08
2022-11-15T22:44:48.170Z,18.49
2022-11-15T22:46:10.012Z,18.24
2022-11-15T22:47:31.623Z,18.97
2022-11-15T22:48:53.093Z,18.22
2022-11-15T22:50:14.835Z,18.36
2022-11-15T22:51:36.683Z,13.71
2022-11-15T22:52:58.031Z,17.33
2022-11-15T22:54:19.408Z,15.88
2022-11-15T22:55:41.084Z,15.29
2022-11-15T22:57:02.911Z,16.24
2022-11-15T22:58:25.996Z,14.17
2022-11-15T22:59:47.166Z,14.35
2022-11-15T23:01:19.822Z,13.93
2022-11-15T23:02:41.720Z,15.67
2022-11-15T23:04:03.093Z,14.37
2022-11-15T23:05:24.606Z,18.66
2022-11-15T23:06:45.991Z,14.02
2022-11-15T23:08:08.144Z,12.87
2022-11-15T23:09:29.312Z,14.11
2022-11-15T23:10:50.905Z,13.87
2022-11-15T23:12:12.452Z,15.48
2022-11-15T23:13:33.788Z,14.76
2022-11-15T23:14:55.464Z,15.99
2022-11-15T23:16:17.053Z,16.81
2022-11-15T23:17:38.737Z,16.06
2022-11-15T23:19:05.363Z,16.67
2022-11-15T23:20:42.339Z,17.45
2022-11-15T23:21:49.947Z,17.16
2022-11-15T23:23:11.780Z,17.49
2022-11-15T23:24:32.994Z,17.78
2022-11-15T23:25:58.260Z,16.38
2022-11-15T23:27:19.416Z,16.20
2022-11-15T23:28:41.035Z,16.73
2022-11-15T23:30:02.818Z,19.23
2022-11-15T23:31:24.026Z,17.47
2022-11-15T23:32:45.648Z,19.77
2022-11-15T23:34:07.152Z,19.93
2022-11-15T23:35:28.591Z,16.16
2022-11-15T23:36:50.025Z,17.97
2022-11-15T23:38:11.444Z,17.78
2022-11-15T23:39:33.065Z,15.62
2022-11-15T23:40:54.683Z,16.61
2022-11-15T23:42:16.341Z,16.22
2022-11-15T23:43:37.784Z,15.43
2022-11-15T23:44:59.481Z,15.16
2022-11-15T23:46:20.974Z,15.48
2022-11-15T23:47:43.309Z,16.39
2022-11-15T23:49:05.049Z,15.04
2022-11-15T23:50:26.658Z,16.11
2022-11-15T23:51:48.378Z,14.56
2022-11-15T23:53:09.753Z,16.09
2022-11-15T23:54:31.343Z,15.84
2022-11-15T23:55:56.981Z,17.28
2022-11-15T23:57:18.449Z,17.69
2022-11-15T23:58:40.377Z,15.74
